Geff, IL

2:17 PM CST on March 05, 2015 (GMT -0600)
Flora Municipal | Change Station
CLOSE
Current Station
Airport
Location: Flora,
Elevation: 472 ft
Nearby Weather Stations

Elev 472 ft 38.67 °N, 88.45 °W | Updated 22 minutes ago

Clear
Clear
20 °F
Feels Like 7 °F
N
13
Wind Variable Wind from NW
Gusts 20 mph

Today
High -- | Low -- °F
--% Chance of Precip.
Yesterday
High -- | Low -- °F
Precip. -- in
6:20 AM 5:50 PM
Full, 100% visible
Pressure 30.54 in
Visibility 10.0 miles
Clouds Clear
Windchill 7 °F
Dew Point 4 °F
Humidity 50%
Rainfall 0.00 in
Snow Depth Not available.
UV 5 out of 12
Pollen .70 out of 12
Air Quality Not available.
Flu Activity Not available.
METAR KFOA 051955Z AUTO 32011G17KT 10SM CLR M07/M16 A3054 RMK AO2 T10681156

More Conditions Fewer Conditions

Pressure 30.54 in
Visibility 10.0 miles
Clouds Clear
Windchill 7 °F
Dew Point 4 °F
Humidity 50%
Rainfall 0.00 in
Snow Depth Not available.
UV 5 out of 12
Pollen .70 out of 12
Air Quality Not available.
Flu Activity Not available.
METAR KFOA 051955Z AUTO 32011G17KT 10SM CLR M07/M16 A3054 RMK AO2 T10681156

More Conditions Fewer Conditions

10-Day Weather Forecast

Almanac

Astronomy

Mar. 05, 2015 Rise Set
Actual Time
Civil Twilight
Nautical Twilight
Astronomical Twilight
Moon
Length of Visible Light
Length of Day
Tomorrow will be .
, % of the Moon is Illuminated

Today's Extremes

State Highs State Lows

Community

WunderPhotos

Upload Photos

1,802,938 photos uploaded!

WunderBlogs® & News

Nearby

Air Quality

  Air Quality AQ Index Pollutant
Not available.

Snow Depth

Station Depth Elevation

Earthquake Activity

City Distance Mag. Time & Date
Minimum magnitude displayed is 2.5.

Coastal Water Temperatures

Place Temperature

Nearby Weather Stations